ENVA Airport Information

Runway Information
Runway 09 Length 9052 ft width 148 ft
Elevation 17 ft Threshold 830 ft Heading 90
Runway 27 Length 9052 ft Width 148 ft
Elevation 56 ft Threshold 459 ft Heading 270
Runway 13 Length 4771 ft width 118 ft
Elevation 30 ft Threshold 412 ft Heading 134
Runway 31 Length 4771 ft Width 118 ft
Elevation 54 ft Threshold 962 ft Heading 314
Runway 14 Length 3117 ft width 118 ft
Elevation 30 ft Threshold 0 ft Heading 134
Runway 32 Length 3117 ft Width 118 ft
Elevation 54 ft Threshold 0 ft Heading 314
Airport Frequencies
Type APP Name APP Frequency 118.6 MHZ
Type ATIS Name ATIS Frequency 127.55 MHZ
Type GND Name Værnes gro Frequency 121.6 MHZ
Type TWR Name TWR Frequency 119.4 MHZ
Airport Navaids
Type NDB Name Flornes Frequency 380 KHZ
Type NDB Name Grakallen Frequency 358 KHZ
Type VOR-DME Name Trondheim Frequency 112500 KHZ
Type TACAN Name Vaernes Frequency 109600 KHZ
Airport Weather Information & NOTAM
ADDS - METARS form results

(0833 UTC 18 July 2018)
 
METAR text: ENVA 180820Z 17015G25KT 140V210 9999 FEW084TCU SCT100 25/14 Q1014 TEMPO TSRA SCT040CB RMK WIND 670FT 18024G36KT
Conditions at: ENVA (TRONDHEIM/VAERNE, NO) observed 0820 UTC 18 July 2018
Temperature: 25.0°C (77°F)
Dewpoint: 14.0°C (57°F) [RH = 50%]
Pressure (altimeter): 29.94 inches Hg (1014.0 mb)
Winds: from the S (170 degrees) at 17 MPH (15 knots; 7.8 m/s)
gusting to 29 MPH (25 knots; 13.0 m/s)
Visibility: 6 or more miles (10+ km)
Ceiling: at least 12,000 feet AGL
Clouds: few clouds at 8400 feet AGL
scattered clouds at 10000 feet AGL
Weather: no significant weather observed at this time

METAR text: ENVA 180750Z 17006KT 100V250 9999 SCT086TCU 27/14 Q1013 TEMPO TSRA SCT040CB RMK WIND 670FT 16015KT
Conditions at: ENVA (TRONDHEIM/VAERNE, NO) observed 0750 UTC 18 July 2018
Temperature: 27.0°C (81°F)
Dewpoint: 14.0°C (57°F) [RH = 45%]
Pressure (altimeter): 29.91 inches Hg (1013.0 mb)
Winds: from the S (170 degrees) at 7 MPH (6 knots; 3.1 m/s)
Visibility: 6 or more miles (10+ km)
Ceiling: at least 12,000 feet AGL
Clouds: scattered clouds at 8600 feet AGL
Weather: no significant weather observed at this time